Time;durP1;ratioP1;P1;durP2;ratioP2;P2;SDS_P1;SDS_P2;PMS_P1;PMS_P2;Temp;Humidity;BMP_temperature;BMP_pressure;BME280_temperature;BME280_humidity;BME280_pressure;Samples;Min_cycle;Max_cycle;Signal;HPM_P1;HPM_P2
2023/01/04 00:01:31;;;;;;;8.63;2.58;;;;;;;8.22;99.62;101909.00;4959023;28;20058;-82
2023/01/04 00:03:57;;;;;;;9.52;3.08;;;;;;;8.18;100.00;101884.31;4975012;28;20113;-81
2023/01/04 00:06:22;;;;;;;9.13;2.95;;;;;;;8.14;100.00;101884.16;4976630;28;20061;-81
2023/01/04 00:08:48;;;;;;;8.75;2.60;;;;;;;8.19;100.00;101885.22;4975120;28;20034;-82
2023/01/04 00:11:16;;;;;;;7.97;2.80;;;;;;;8.16;100.00;101870.19;4974820;28;20031;-82
2023/01/04 00:13:42;;;;;;;8.57;3.05;;;;;;;8.16;100.00;101888.63;4976878;28;20109;-82
2023/01/04 00:16:19;;;;;;;11.85;3.17;;;;;;;8.14;100.00;101868.34;4975787;28;20117;-83
2023/01/04 00:18:45;;;;;;;7.97;2.65;;;;;;;8.02;100.00;101850.38;4958598;28;20125;-82
2023/01/04 00:21:18;;;;;;;10.82;2.65;;;;;;;8.11;100.00;101866.50;4975462;28;20117;-83
2023/01/04 00:23:47;;;;;;;8.40;2.58;;;;;;;8.10;100.00;101859.44;4975354;28;20066;-83
2023/01/04 00:26:15;;;;;;;11.85;3.20;;;;;;;8.05;100.00;101853.13;4975169;28;20033;-83
2023/01/04 00:28:42;;;;;;;8.25;3.10;;;;;;;8.08;100.00;101854.94;4975022;28;20078;-83
2023/01/04 00:31:10;;;;;;;10.23;2.80;;;;;;;8.08;100.00;101837.41;4975523;28;20041;-83
2023/01/04 00:33:35;;;;;;;6.95;2.67;;;;;;;8.06;100.00;101832.97;4975763;28;20026;-84
2023/01/04 00:36:06;;;;;;;9.40;2.75;;;;;;;8.08;100.00;101829.50;4975512;28;20027;-83
2023/01/04 00:38:32;;;;;;;9.35;3.15;;;;;;;8.10;100.00;101811.16;4957816;28;20023;-84
2023/01/04 00:40:58;;;;;;;8.40;3.00;;;;;;;8.10;100.00;101803.28;4974909;28;20038;-83
2023/01/04 00:43:23;;;;;;;9.05;3.13;;;;;;;8.15;100.00;101806.97;4975516;28;20027;-84
2023/01/04 00:45:49;;;;;;;8.63;3.17;;;;;;;8.12;100.00;101812.09;4975082;28;20054;-84
2023/01/04 00:48:14;;;;;;;8.88;2.83;;;;;;;8.14;100.00;101806.06;4958254;28;20035;-84
2023/01/04 00:50:39;;;;;;;7.10;2.83;;;;;;;8.15;100.00;101815.75;4974971;28;20035;-84
2023/01/04 00:53:05;;;;;;;10.00;3.30;;;;;;;8.21;100.00;101802.78;4974975;28;20031;-84
2023/01/04 00:55:30;;;;;;;7.75;2.47;;;;;;;8.20;100.00;101795.75;4974684;28;20057;-84
2023/01/04 00:57:57;;;;;;;9.20;3.17;;;;;;;8.19;100.00;101788.69;4974646;28;20023;-83
2023/01/04 01:00:22;;;;;;;5.90;2.70;;;;;;;8.26;100.00;101787.16;4957525;28;20030;-83
2023/01/04 01:02:51;;;;;;;5.93;2.63;;;;;;;8.28;100.00;101793.38;4975236;28;20035;-84
2023/01/04 01:05:17;;;;;;;7.82;3.00;;;;;;;8.32;100.00;101800.56;4973920;28;20034;-84
2023/01/04 01:07:42;;;;;;;5.03;2.45;;;;;;;8.39;100.00;101791.16;4973405;28;20046;-84
2023/01/04 01:10:07;;;;;;;6.78;2.60;;;;;;;8.36;100.00;101777.88;4974782;28;20117;-84
2023/01/04 01:12:33;;;;;;;6.00;2.42;;;;;;;8.36;100.00;101780.50;4973605;28;20034;-83
2023/01/04 01:14:58;;;;;;;11.80;3.05;;;;;;;8.38;100.00;101776.19;4975092;28;20031;-83
2023/01/04 01:17:23;;;;;;;4.88;2.80;;;;;;;8.41;100.00;101765.78;4974500;28;20031;-83
2023/01/04 01:19:49;;;;;;;6.75;2.80;;;;;;;8.45;100.00;101768.56;4973836;28;20066;-84
2023/01/04 01:22:14;;;;;;;10.30;3.10;;;;;;;8.40;100.00;101751.72;4957287;28;20536;-83
2023/01/04 01:24:40;;;;;;;9.85;2.50;;;;;;;8.42;100.00;101765.81;4957112;28;20065;-84
2023/01/04 01:27:05;;;;;;;6.00;2.88;;;;;;;8.41;100.00;101764.03;4974621;28;20383;-84
2023/01/04 01:29:30;;;;;;;3.75;2.33;;;;;;;8.50;100.00;101750.28;4966749;28;20509;-83
2023/01/04 01:31:56;;;;;;;5.93;2.90;;;;;;;8.49;100.00;101762.56;4976463;28;20073;-83
2023/01/04 01:34:21;;;;;;;4.68;2.50;;;;;;;8.50;100.00;101756.44;4976671;28;20045;-83
2023/01/04 01:36:47;;;;;;;6.93;2.72;;;;;;;8.45;100.00;101759.78;4994269;28;20030;-84
2023/01/04 01:39:12;;;;;;;5.15;2.70;;;;;;;8.45;100.00;101755.41;4993590;28;20117;-84
2023/01/04 01:41:37;;;;;;;7.53;2.53;;;;;;;8.52;100.00;101749.50;4978873;28;20092;-85
2023/01/04 01:44:41;;;;;;;10.90;2.92;;;;;;;8.53;100.00;101748.66;4980555;28;20057;-84
2023/01/04 01:47:13;;;;;;;8.32;2.70;;;;;;;8.52;100.00;101741.59;4980344;28;20045;-86
2023/01/04 01:49:41;;;;;;;7.25;2.78;;;;;;;8.50;100.00;101739.75;4997499;28;20033;-85
2023/01/04 01:52:13;;;;;;;6.15;2.75;;;;;;;8.55;100.00;101751.31;4997678;28;20035;-84
2023/01/04 01:54:45;;;;;;;6.03;2.30;;;;;;;8.54;100.00;101749.53;4980166;28;20030;-85
2023/01/04 01:57:15;;;;;;;5.15;2.97;;;;;;;8.57;100.00;101747.03;4997589;28;20050;-83
2023/01/04 01:59:44;;;;;;;6.38;2.80;;;;;;;8.53;100.00;101746.00;4997831;28;20443;-83
2023/01/04 02:02:10;;;;;;;6.40;2.60;;;;;;;8.53;100.00;101735.47;4997422;28;20133;-83
2023/01/04 02:04:39;;;;;;;5.38;2.63;;;;;;;8.62;100.00;101721.72;4979951;28;20113;-81
2023/01/04 02:07:05;;;;;;;5.22;2.65;;;;;;;8.56;100.00;101734.66;4979841;28;20030;-82
2023/01/04 02:09:32;;;;;;;6.32;2.50;;;;;;;8.58;100.00;101730.34;4979965;28;20026;-83
2023/01/04 02:11:57;;;;;;;7.70;2.50;;;;;;;8.61;100.00;101737.44;4997258;28;20362;-82
2023/01/04 02:14:26;;;;;;;5.13;2.50;;;;;;;8.62;100.00;101739.25;4979552;28;20049;-82
2023/01/04 02:16:51;;;;;;;6.20;2.40;;;;;;;8.63;100.00;101739.31;4996953;28;20106;-82
2023/01/04 02:19:54;;;;;;;8.07;2.50;;;;;;;8.72;100.00;101730.81;4979650;28;20487;-82
2023/01/04 02:22:55;;;;;;;3.80;1.95;;;;;;;8.69;100.00;101742.16;4997641;28;20034;-84
2023/01/04 02:25:58;;;;;;;4.72;2.28;;;;;;;8.72;100.00;101750.13;4979876;28;20041;-84
2023/01/04 02:28:42;;;;;;;2.72;2.00;;;;;;;8.72;100.00;101738.72;4979071;28;20141;-84
2023/01/04 02:31:20;;;;;;;3.92;2.30;;;;;;;8.72;100.00;101717.63;4997315;28;20038;-84
2023/01/04 02:33:59;;;;;;;3.63;2.25;;;;;;;8.73;100.00;101722.94;4996932;28;20034;-84
2023/01/04 02:36:33;;;;;;;5.10;2.50;;;;;;;8.80;100.00;101725.78;4997667;28;20427;-84
2023/01/04 02:38:58;;;;;;;5.50;2.13;;;;;;;8.80;100.00;101709.97;4979928;28;20068;-84
2023/01/04 02:41:37;;;;;;;6.05;2.10;;;;;;;8.79;100.00;101698.53;4996734;28;20078;-85
2023/01/04 02:47:10;;;;;;;4.00;2.20;;;;;;;8.84;100.00;101696.94;4996746;28;20489;-85
2023/01/04 02:52:22;;;;;;;4.53;2.20;;;;;;;8.95;100.00;101681.44;4996193;28;20072;-85
2023/01/04 02:54:51;;;;;;;3.88;2.28;;;;;;;8.98;100.00;101678.91;4996217;28;20065;-86
2023/01/04 02:57:42;;;;;;;2.88;1.83;;;;;;;9.01;100.00;101666.72;4996528;28;20022;-86
2023/01/04 03:00:07;;;;;;;1.95;1.75;;;;;;;9.04;100.00;101676.47;4997039;28;20029;-85
2023/01/04 03:06:16;;;;;;;4.00;1.80;;;;;;;9.03;100.00;101680.84;4996878;28;20042;-86
2023/01/04 03:08:53;;;;;;;2.85;1.80;;;;;;;9.06;100.00;101658.06;4996358;28;20459;-86
2023/01/04 03:14:16;;;;;;;4.05;2.00;;;;;;;9.09;100.00;101661.69;4996535;28;20132;-85
2023/01/04 03:16:44;;;;;;;3.92;2.08;;;;;;;9.10;100.00;101667.84;4996145;28;20027;-86
2023/01/04 03:19:11;;;;;;;2.92;1.90;;;;;;;9.10;100.00;101665.22;4996110;28;20088;-85
2023/01/04 03:21:42;;;;;;;4.55;2.00;;;;;;;9.09;100.00;101647.63;4996169;28;20019;-85
2023/01/04 03:35:45;;;;;;;2.50;2.08;;;;;;;9.18;100.00;101648.78;4995823;28;20053;-85
2023/01/04 03:50:10;;;;;;;2.83;2.20;;;;;;;9.28;100.00;101607.72;4995469;28;20053;-84
2023/01/04 03:52:39;;;;;;;2.42;2.00;;;;;;;9.35;100.00;101617.59;4995455;28;20037;-84
2023/01/04 03:55:06;;;;;;;5.15;2.55;;;;;;;9.40;100.00;101600.16;4995943;28;20443;-84
2023/01/04 03:57:32;;;;;;;2.90;2.10;;;;;;;9.36;100.00;101606.19;4995259;28;20022;-84
2023/01/04 04:00:04;;;;;;;4.05;2.35;;;;;;;9.40;100.00;101608.06;4995234;28;20030;-85
2023/01/04 04:02:33;;;;;;;4.00;2.17;;;;;;;9.40;100.00;101610.72;4994933;28;20470;-84
2023/01/04 04:10:27;;;;;;;3.17;1.98;;;;;;;9.48;100.00;101600.38;4995142;28;20124;-84
2023/01/04 04:12:52;;;;;;;3.78;2.75;;;;;;;9.49;100.00;101596.88;4995074;28;20113;-85
2023/01/04 04:15:17;;;;;;;3.88;2.42;;;;;;;9.48;100.00;101596.00;4977289;28;20034;-84
2023/01/04 04:17:43;;;;;;;3.38;2.13;;;;;;;9.52;100.00;101604.88;4977386;28;20156;-85
2023/01/04 04:20:09;;;;;;;3.28;2.30;;;;;;;9.53;100.00;101585.56;4993697;28;20355;-84
2023/01/04 04:22:35;;;;;;;6.57;2.40;;;;;;;9.53;100.00;101591.72;4995524;28;20336;-84
2023/01/04 04:25:00;;;;;;;2.80;2.10;;;;;;;9.58;100.00;101597.13;4977810;28;20478;-84
2023/01/04 04:27:28;;;;;;;3.83;2.50;;;;;;;9.54;100.00;101575.03;4995045;28;20034;-84
2023/01/04 04:29:53;;;;;;;6.15;2.60;;;;;;;9.53;100.00;101567.97;4977067;28;20134;-84
2023/01/04 04:32:19;;;;;;;3.08;2.40;;;;;;;9.57;100.00;101573.34;4994778;28;20445;-84
2023/01/04 04:34:44;;;;;;;5.35;2.80;;;;;;;9.54;100.00;101560.94;4977286;28;20369;-84
2023/01/04 04:37:10;;;;;;;2.97;2.30;;;;;;;9.61;100.00;101565.56;4961015;28;20030;-85
2023/01/04 04:39:36;;;;;;;4.70;2.60;;;;;;;9.62;100.00;101559.41;4977605;28;20431;-84
2023/01/04 04:42:01;;;;;;;4.35;2.40;;;;;;;9.59;100.00;101551.41;4993313;28;20030;-84
2023/01/04 04:44:26;;;;;;;4.22;2.50;;;;;;;9.64;100.00;101543.66;4977847;28;20042;-85
2023/01/04 04:46:52;;;;;;;3.33;2.40;;;;;;;9.65;100.00;101548.94;4977195;28;20066;-84
2023/01/04 04:49:17;;;;;;;6.40;2.70;;;;;;;9.69;100.00;101544.66;4993189;28;20038;-84
2023/01/04 04:51:44;;;;;;;6.05;2.60;;;;;;;9.72;100.00;101547.34;4994078;28;20026;-84
2023/01/04 04:54:14;;;;;;;4.05;2.35;;;;;;;9.76;100.00;101555.41;4977159;28;20473;-85
2023/01/04 04:56:40;;;;;;;5.85;2.60;;;;;;;9.79;100.00;101534.34;4977133;28;20081;-84
2023/01/04 04:59:06;;;;;;;4.32;2.50;;;;;;;9.81;100.00;101528.19;4976652;28;20374;-85
2023/01/04 05:01:32;;;;;;;4.65;2.60;;;;;;;9.84;100.00;101530.94;4994230;28;20030;-84
2023/01/04 05:03:57;;;;;;;3.85;2.50;;;;;;;9.85;100.00;101541.53;4992812;28;20030;-84
2023/01/04 05:06:23;;;;;;;5.60;2.65;;;;;;;9.89;100.00;101545.13;4993983;28;20033;-84
2023/01/04 05:08:49;;;;;;;4.32;2.22;;;;;;;9.93;100.00;101542.59;4976519;28;20030;-83
2023/01/04 05:11:14;;;;;;;5.30;2.58;;;;;;;9.92;100.00;101522.34;4993877;28;20026;-84
2023/01/04 05:13:40;;;;;;;5.03;2.42;;;;;;;9.97;100.00;101533.91;4976642;28;20026;-84
2023/01/04 05:16:07;;;;;;;6.57;2.60;;;;;;;9.98;100.00;101522.50;4976543;28;20061;-84
2023/01/04 05:18:32;;;;;;;6.25;2.50;;;;;;;9.94;100.00;101510.09;4993619;28;20481;-84
2023/01/04 05:20:58;;;;;;;5.00;2.40;;;;;;;10.01;100.00;101509.34;4992555;28;20034;-85
2023/01/04 05:23:24;;;;;;;5.05;2.53;;;;;;;10.09;100.00;101511.28;4994006;28;20090;-84
2023/01/04 05:25:59;;;;;;;5.18;2.50;;;;;;;10.10;100.00;101503.41;4976488;28;20034;-85
2023/01/04 05:28:25;;;;;;;4.03;2.35;;;;;;;10.13;100.00;101505.22;4993158;28;20022;-85
2023/01/04 05:30:52;;;;;;;3.40;2.22;;;;;;;10.16;100.00;101508.84;4973977;28;20117;-84
2023/01/04 05:33:28;;;;;;;6.10;2.60;;;;;;;10.16;100.00;101506.19;4974569;28;20043;-84
2023/01/04 05:35:56;;;;;;;6.53;2.53;;;;;;;10.14;100.00;101493.81;4956909;28;20030;-84
2023/01/04 05:38:22;;;;;;;5.00;2.70;;;;;;;10.21;100.00;101501.03;4974216;28;20058;-84
2023/01/04 05:40:49;;;;;;;4.93;2.40;;;;;;;10.23;100.00;101486.09;4974977;28;20073;-84
2023/01/04 05:43:15;;;;;;;5.57;2.50;;;;;;;10.25;100.00;101487.94;4974313;28;20030;-84
2023/01/04 05:45:43;;;;;;;5.13;2.60;;;;;;;10.34;100.00;101502.22;4957009;28;20031;-84
2023/01/04 05:48:09;;;;;;;7.32;2.40;;;;;;;10.30;100.00;101479.22;4974366;28;20070;-84
2023/01/04 05:50:35;;;;;;;4.30;2.30;;;;;;;10.27;100.00;101482.69;4957665;28;20409;-84
2023/01/04 05:53:00;;;;;;;6.10;2.50;;;;;;;10.26;100.00;101476.50;4974295;28;20033;-85
2023/01/04 05:55:25;;;;;;;4.22;2.20;;;;;;;10.26;100.00;101473.00;4974605;28;20066;-84
2023/01/04 05:57:52;;;;;;;4.53;2.45;;;;;;;10.26;100.00;101452.75;4973147;28;20046;-84
2023/01/04 06:00:17;;;;;;;3.60;2.25;;;;;;;10.28;100.00;101473.94;4974331;28;20443;-84
2023/01/04 06:02:43;;;;;;;5.53;2.38;;;;;;;10.32;100.00;101466.94;4973932;28;20042;-84
2023/01/04 06:05:10;;;;;;;4.78;2.30;;;;;;;10.28;100.00;101450.16;4956868;28;20034;-84
2023/01/04 06:07:37;;;;;;;4.55;2.30;;;;;;;10.32;100.00;101459.00;4974759;28;20046;-84
2023/01/04 06:10:03;;;;;;;2.88;2.03;;;;;;;10.39;100.00;101463.56;4974301;28;20098;-85
2023/01/04 06:12:28;;;;;;;4.35;2.22;;;;;;;10.44;100.00;101477.78;4956821;28;20426;-84
2023/01/04 06:14:53;;;;;;;5.82;2.22;;;;;;;10.48;100.00;101479.63;4956680;28;20078;-84
2023/01/04 06:17:19;;;;;;;3.85;2.10;;;;;;;10.49;100.00;101481.41;4974218;28;20030;-84
2023/01/04 06:19:45;;;;;;;4.45;2.17;;;;;;;10.53;100.00;101484.16;4974689;28;20030;-84
2023/01/04 06:22:10;;;;;;;3.83;2.30;;;;;;;10.52;100.00;101506.13;4972649;28;20034;-84
2023/01/04 06:24:36;;;;;;;6.40;2.30;;;;;;;10.51;100.00;101477.94;4974027;28;20051;-85
2023/01/04 06:27:02;;;;;;;6.80;2.38;;;;;;;10.49;100.00;101479.69;4956999;28;20035;-84
2023/01/04 06:29:27;;;;;;;3.95;2.30;;;;;;;10.46;100.00;101469.03;4985811;28;20054;-85
2023/01/04 06:31:54;;;;;;;6.07;2.30;;;;;;;10.49;100.00;101455.91;4979445;28;20037;-85
2023/01/04 06:34:19;;;;;;;4.28;2.30;;;;;;;10.50;100.00;101446.22;4996900;28;20034;-85
2023/01/04 06:36:44;;;;;;;5.57;2.40;;;;;;;10.49;100.00;101462.91;4996853;28;20077;-85
2023/01/04 06:39:10;;;;;;;4.07;2.10;;;;;;;10.51;100.00;101445.34;4979126;28;20041;-85
2023/01/04 06:41:35;;;;;;;3.78;2.13;;;;;;;10.43;100.00;101455.75;4996762;28;20085;-85
2023/01/04 06:44:01;;;;;;;3.63;2.00;;;;;;;10.49;100.00;101484.97;4996056;28;20435;-85
2023/01/04 06:46:26;;;;;;;2.88;2.00;;;;;;;10.47;100.00;101465.53;4996337;28;20038;-85
2023/01/04 06:48:52;;;;;;;3.47;2.15;;;;;;;10.47;100.00;101469.91;4978819;28;20117;-84
2023/01/04 06:51:19;;;;;;;3.58;2.10;;;;;;;10.42;100.00;101456.63;4997144;28;20057;-84
2023/01/04 06:53:44;;;;;;;3.58;2.33;;;;;;;10.51;100.00;101461.19;4979793;28;20398;-85
2023/01/04 06:56:10;;;;;;;2.45;2.03;;;;;;;10.55;100.00;101476.25;4996746;28;20093;-85
2023/01/04 06:58:36;;;;;;;4.50;2.00;;;;;;;10.52;100.00;101478.81;4996469;28;20027;-85
2023/01/04 07:01:01;;;;;;;4.13;2.08;;;;;;;10.54;100.00;101485.06;4996403;28;20030;-85
2023/01/04 07:03:27;;;;;;;3.85;2.30;;;;;;;10.55;100.00;101473.63;4995843;28;20076;-84
2023/01/04 07:05:52;;;;;;;4.07;1.80;;;;;;;10.59;100.00;101449.03;4996858;28;20431;-85
2023/01/04 07:08:18;;;;;;;2.92;1.88;;;;;;;10.60;100.00;101457.84;4996567;28;20113;-84
2023/01/04 07:10:43;;;;;;;3.80;1.95;;;;;;;10.66;100.00;101455.31;4996281;28;20365;-84
2023/01/04 07:13:09;;;;;;;2.22;1.80;;;;;;;10.70;100.00;101460.69;4995898;28;20029;-85
2023/01/04 07:15:35;;;;;;;3.35;1.95;;;;;;;10.73;100.00;101457.22;4979189;28;20029;-84
2023/01/04 07:18:01;;;;;;;3.05;1.85;;;;;;;10.78;100.00;101450.28;4994871;28;20034;-84
2023/01/04 07:20:26;;;;;;;4.07;1.98;;;;;;;10.78;100.00;101437.94;4978668;28;20090;-85
2023/01/04 07:22:52;;;;;;;2.63;1.90;;;;;;;10.85;100.00;101438.09;4994781;28;20031;-85
2023/01/04 07:25:18;;;;;;;4.78;2.15;;;;;;;10.82;100.00;101430.09;4995957;28;20462;-84
2023/01/04 07:27:44;;;;;;;6.10;2.20;;;;;;;10.92;100.00;101430.31;4962371;28;20034;-84
2023/01/04 07:30:10;;;;;;;3.10;1.90;;;;;;;10.98;100.00;101427.75;4994685;28;20168;-84
2023/01/04 07:32:35;;;;;;;4.45;2.00;;;;;;;11.01;100.00;101430.47;4978088;28;20119;-81
2023/01/04 07:35:00;;;;;;;1.90;1.70;;;;;;;11.08;100.00;101415.59;4962210;28;20030;-83
2023/01/04 07:37:26;;;;;;;1.95;1.60;;;;;;;11.08;100.00;101415.59;4995492;28;20093;-84
2023/01/04 07:39:51;;;;;;;2.08;1.70;;;;;;;11.12;100.00;101417.44;4977967;28;20473;-84
2023/01/04 07:42:18;;;;;;;4.15;1.80;;;;;;;11.08;100.00;101414.69;4995304;28;20562;-84
2023/01/04 07:44:44;;;;;;;2.92;1.88;;;;;;;11.17;100.00;101422.78;4978058;28;20058;-84
2023/01/04 07:47:10;;;;;;;4.60;1.75;;;;;;;11.15;100.00;101416.59;4996246;28;20056;-83
2023/01/04 07:49:35;;;;;;;3.10;1.60;;;;;;;11.13;100.00;101418.31;4978055;28;20050;-84
2023/01/04 07:52:01;;;;;;;4.28;1.65;;;;;;;11.16;100.00;101408.69;4993863;28;20037;-84
2023/01/04 07:54:26;;;;;;;3.72;1.80;;;;;;;11.20;100.00;101391.13;4994173;28;20034;-84
2023/01/04 07:56:52;;;;;;;3.15;1.80;;;;;;;11.21;100.00;101398.19;4995293;28;20113;-84
2023/01/04 07:59:19;;;;;;;5.80;1.92;;;;;;;11.18;100.00;101393.75;4978306;28;20041;-84
2023/01/04 08:01:45;;;;;;;5.15;1.90;;;;;;;11.23;100.00;101399.13;4995264;28;20030;-85
2023/01/04 08:04:12;;;;;;;6.55;2.00;;;;;;;11.25;100.00;101384.13;4978495;28;20030;-84
2023/01/04 08:06:38;;;;;;;3.83;1.63;;;;;;;11.29;100.00;101389.50;4978011;28;20067;-84
2023/01/04 08:09:04;;;;;;;6.10;2.00;;;;;;;11.33;100.00;101400.16;4993736;28;20557;-84
2023/01/04 08:11:30;;;;;;;4.97;1.90;;;;;;;11.38;100.00;101394.06;4995084;28;20030;-84
2023/01/04 08:13:56;;;;;;;7.03;2.17;;;;;;;11.40;100.00;101402.03;4995007;28;20037;-85
2023/01/04 08:16:26;;;;;;;5.57;2.10;;;;;;;11.42;100.00;101405.59;4977569;28;20382;-84
2023/01/04 08:18:57;;;;;;;4.25;1.70;;;;;;;11.38;100.00;101409.94;4977522;28;20477;-84
2023/01/04 08:21:22;;;;;;;4.70;2.00;;;;;;;11.32;100.00;101393.97;4994875;28;20108;-83
2023/01/04 08:23:48;;;;;;;5.10;1.90;;;;;;;11.39;100.00;101418.75;4977356;28;20491;-83
2023/01/04 08:26:15;;;;;;;6.50;2.00;;;;;;;11.36;100.00;101430.19;4977819;28;20026;-83
2023/01/04 08:28:41;;;;;;;3.53;1.95;;;;;;;11.39;100.00;101432.00;4994254;28;20062;-84
2023/01/04 08:31:18;;;;;;;5.35;2.20;;;;;;;11.43;100.00;101416.19;4995081;28;20030;-83
2023/01/04 08:33:45;;;;;;;4.25;1.90;;;;;;;11.47;100.00;101425.94;4977732;28;20378;-83
2023/01/04 08:36:20;;;;;;;3.47;1.63;;;;;;;11.45;100.00;101434.75;4994675;28;20033;-83
2023/01/04 08:38:47;;;;;;;5.03;2.30;;;;;;;11.51;100.00;101417.19;4977095;28;20066;-84
2023/01/04 08:41:14;;;;;;;6.20;1.83;;;;;;;11.53;100.00;101417.25;4977106;28;20034;-83
2023/01/04 08:43:41;;;;;;;3.40;1.88;;;;;;;11.53;100.00;101430.47;4994468;28;20097;-83
2023/01/04 08:46:07;;;;;;;5.93;1.90;;;;;;;11.53;100.00;101411.94;4976999;28;20027;-83
2023/01/04 08:48:34;;;;;;;5.00;1.83;;;;;;;11.55;100.00;101418.16;4994448;28;20034;-83
2023/01/04 08:51:01;;;;;;;5.47;2.00;;;;;;;11.60;100.00;101471.16;4976285;28;20129;-83
2023/01/04 08:53:27;;;;;;;5.28;1.83;;;;;;;11.62;100.00;101435.91;4994606;28;20034;-83
2023/01/04 08:55:53;;;;;;;4.45;1.95;;;;;;;11.60;100.00;101427.03;4994349;28;20037;-84
2023/01/04 08:58:19;;;;;;;3.88;1.90;;;;;;;11.65;100.00;101425.38;4994301;28;20050;-84
2023/01/04 09:00:45;;;;;;;5.32;1.85;;;;;;;11.58;100.00;101425.25;4976982;28;20069;-83
2023/01/04 09:03:11;;;;;;;4.15;1.83;;;;;;;11.61;100.00;101439.44;4993321;28;20065;-84
2023/01/04 09:05:36;;;;;;;7.10;2.13;;;;;;;11.60;100.00;101415.56;4994301;28;20034;-90
2023/01/04 09:08:01;;;;;;;5.13;1.92;;;;;;;11.65;100.00;101412.16;4992797;28;20030;-87
2023/01/04 09:10:27;;;;;;;8.02;1.85;;;;;;;11.70;100.00;101412.22;4992967;28;20475;-83
2023/01/04 09:12:53;;;;;;;3.17;1.70;;;;;;;11.69;100.00;101416.63;4993276;28;20478;-84
2023/01/04 09:15:20;;;;;;;5.22;1.73;;;;;;;11.75;100.00;101437.88;4977043;28;20038;-87
2023/01/04 09:17:45;;;;;;;4.80;1.83;;;;;;;11.77;100.00;101433.50;4993268;28;20415;-81
2023/01/04 09:20:10;;;;;;;5.22;1.88;;;;;;;11.80;100.00;101424.72;4994317;28;20164;-81
2023/01/04 09:22:36;;;;;;;5.95;1.95;;;;;;;11.78;100.00;101426.47;4995050;28;20386;-80
2023/01/04 09:25:02;;;;;;;3.38;1.70;;;;;;;11.79;100.00;101430.88;4994319;28;20097;-80
2023/01/04 09:27:30;;;;;;;5.65;2.05;;;;;;;11.78;100.00;101427.34;4993997;28;20027;-81
2023/01/04 09:29:56;;;;;;;5.50;2.13;;;;;;;11.79;100.00;101426.47;4993855;28;20557;-81
2023/01/04 09:32:21;;;;;;;5.45;2.08;;;;;;;11.76;100.00;101417.59;4994925;28;20034;-81
2023/01/04 09:34:47;;;;;;;4.93;1.90;;;;;;;11.77;100.00;101436.13;4994010;28;20027;-81
2023/01/04 09:37:12;;;;;;;5.07;1.80;;;;;;;11.78;100.00;101424.69;4993638;28;20459;-82
2023/01/04 09:39:37;;;;;;;3.38;1.63;;;;;;;11.78;100.00;101424.69;4993882;28;20030;-82
2023/01/04 09:42:18;;;;;;;5.03;2.00;;;;;;;11.72;100.00;101434.28;4976273;28;20034;-81
2023/01/04 09:44:48;;;;;;;4.63;1.70;;;;;;;11.68;100.00;101430.69;5018247;23;20438;-74
2023/01/04 09:47:31;;;;;;;3.67;1.77;;;;;;;11.64;100.00;101431.53;4973935;28;20041;-76
2023/01/04 09:50:01;;;;;;;4.75;1.90;;;;;;;11.64;100.00;101422.69;4973916;28;20058;-74
2023/01/04 09:52:44;;;;;;;6.65;2.00;;;;;;;11.61;100.00;101412.97;4973892;28;20436;-76
2023/01/04 09:55:37;;;;;;;3.63;1.90;;;;;;;11.58;100.00;101407.63;4973834;28;20031;-76
2023/01/04 09:58:11;;;;;;;5.57;2.00;;;;;;;11.60;100.00;101423.50;4966063;28;20066;-75
2023/01/04 10:01:03;;;;;;;4.63;2.10;;;;;;;11.59;100.00;101419.09;4973727;28;20431;-76
2023/01/04 10:03:33;;;;;;;4.80;2.00;;;;;;;11.61;100.00;101426.19;4969752;28;20034;-76
2023/01/04 10:06:00;;;;;;;5.35;2.10;;;;;;;11.61;100.00;101427.97;4977661;28;20034;-74
2023/01/04 10:08:26;;;;;;;6.30;2.20;;;;;;;11.58;100.00;101412.91;4976044;28;20030;-76
2023/01/04 10:11:25;;;;;;;8.23;2.40;;;;;;;11.62;100.00;101411.19;4975944;28;20025;-75
2023/01/04 10:14:28;;;;;;;4.45;2.10;;;;;;;11.65;100.00;101412.16;4977171;28;20026;-73
2023/01/04 10:16:56;;;;;;;;;;;;;;;11.64;100.00;101406.81;4977535;28;20034;-74
2023/01/04 10:19:34;;;;;;;9.27;2.40;;;;;;;11.60;100.00;101413.81;4977239;28;19916;-74
2023/01/04 10:22:19;;;;;;;6.07;2.40;;;;;;;11.56;100.00;101413.72;4959674;28;20030;-75
2023/01/04 10:24:56;;;;;;;7.20;2.35;;;;;;;11.58;100.00;101406.72;4975824;28;20027;-76
2023/01/04 10:27:45;;;;;;;5.97;2.38;;;;;;;11.55;100.00;101410.19;4976975;28;20074;-75
2023/01/04 10:30:54;;;;;;;7.90;2.53;;;;;;;11.55;100.00;101412.84;4977019;28;20114;-75
2023/01/04 10:33:38;;;;;;;5.13;2.28;;;;;;;11.57;100.00;101416.44;4976865;28;20031;-73
2023/01/04 10:36:17;;;;;;;5.47;2.22;;;;;;;11.54;100.00;101411.97;4976970;28;20077;-74
2023/01/04 10:38:43;;;;;;;4.10;2.08;;;;;;;11.57;100.00;101418.19;4976837;28;20038;-75
2023/01/04 10:41:20;;;;;;;5.43;2.20;;;;;;;11.52;100.00;101403.13;4976798;28;20027;-76
2023/01/04 10:43:58;;;;;;;7.82;2.30;;;;;;;11.54;100.00;101416.38;4976500;28;20038;-75
2023/01/04 10:46:35;;;;;;;6.82;2.22;;;;;;;11.54;100.00;101413.72;4976642;28;20047;-79
2023/01/04 10:49:38;;;;;;;4.65;2.05;;;;;;;11.57;100.00;101407.59;4976709;28;20039;-78
2023/01/04 10:52:16;;;;;;;5.57;2.30;;;;;;;11.51;100.00;101393.38;4948492;28;20161;-76
2023/01/04 10:55:10;;;;;;;6.80;2.30;;;;;;;11.55;100.00;101383.75;4976658;28;20450;-79
2023/01/04 10:57:47;;;;;;;4.55;2.10;;;;;;;11.56;100.00;101398.75;4976272;28;20037;-77
2023/01/04 11:00:22;;;;;;;6.65;2.30;;;;;;;11.55;100.00;101391.69;4976658;28;20033;-81
2023/01/04 11:03:00;;;;;;;4.88;2.03;;;;;;;11.55;100.00;101394.31;4976327;28;20031;-77
2023/01/04 11:05:31;;;;;;;3.90;2.10;;;;;;;11.58;100.00;101394.38;4976408;28;20118;-74
2023/01/04 11:08:11;;;;;;;4.57;2.00;;;;;;;11.59;100.00;101397.91;4976431;28;20061;-75
2023/01/04 11:10:57;;;;;;;5.55;2.10;;;;;;;11.61;100.00;101410.31;4976474;28;20414;-76
2023/01/04 11:13:23;;;;;;;5.30;2.08;;;;;;;11.60;100.00;101397.03;4975639;28;20085;-77
2023/01/04 11:15:50;;;;;;;3.85;2.00;;;;;;;11.58;100.00;101402.31;4976219;28;20030;-81
2023/01/04 11:18:16;;;;;;;4.68;1.95;;;;;;;11.58;100.00;101398.78;4958273;28;20027;-77
2023/01/04 11:20:41;;;;;;;3.60;1.90;;;;;;;11.64;100.00;101396.22;4957181;28;20065;-72
2023/01/04 11:23:15;;;;;;;2.85;2.00;;;;;;;11.61;100.00;101398.84;4973207;28;20488;-79
2023/01/04 11:25:55;;;;;;;4.25;1.95;;;;;;;11.64;100.00;101406.81;4976289;28;20094;-77
2023/01/04 11:28:30;;;;;;;3.30;2.40;;;;;;;11.62;100.00;101390.91;4976224;28;20061;-78
2023/01/04 11:31:50;;;;;;;2.60;1.67;;;;;;;11.61;100.00;101382.97;4959130;28;20019;-80
2023/01/04 11:34:15;;;;;;;3.05;1.70;;;;;;;11.62;100.00;101380.31;4917430;29;20036;-81
2023/01/04 11:36:45;;;;;;;4.10;1.98;;;;;;;11.61;100.00;101375.91;4916412;29;20028;-75
2023/01/04 11:39:25;;;;;;;3.30;1.60;;;;;;;11.62;100.00;101384.75;4945268;28;20038;-77
2023/01/04 11:42:03;;;;;;;2.83;1.60;;;;;;;11.64;100.00;101375.03;4975653;28;20429;-75
2023/01/04 11:44:33;;;;;;;1.60;1.50;;;;;;;11.64;100.00;101405.03;4975566;28;20033;-75
2023/01/04 11:47:19;;;;;;;2.78;1.48;;;;;;;11.63;100.00;101408.56;4967842;28;20105;-77
2023/01/04 11:49:45;;;;;;;2.08;1.50;;;;;;;11.62;100.00;101397.97;4975652;28;20046;-77
2023/01/04 11:52:26;;;;;;;2.58;1.52;;;;;;;11.62;100.00;101400.63;4975505;28;20023;-72
2023/01/04 11:54:51;;;;;;;2.45;1.50;;;;;;;11.61;100.00;101404.13;4975443;28;20027;-72
2023/01/04 11:57:18;;;;;;;2.65;1.40;;;;;;;11.60;100.00;101403.22;4975350;28;20038;-73
2023/01/04 11:59:44;;;;;;;2.33;1.42;;;;;;;11.62;100.00;101397.97;4975053;28;20064;-74
2023/01/04 12:02:23;;;;;;;2.22;1.60;;;;;;;11.60;100.00;101394.41;4975590;28;20022;-72
2023/01/04 12:04:51;;;;;;;2.67;1.10;;;;;;;11.64;100.00;101404.16;4975262;28;20031;-72
2023/01/04 12:07:30;;;;;;;1.48;1.30;;;;;;;11.61;100.00;101406.78;4975241;28;20027;-73
2023/01/04 12:10:00;;;;;;;1.55;1.10;;;;;;;11.63;100.00;101395.34;4975225;28;20420;-74
2023/01/04 12:12:31;;;;;;;2.47;1.40;;;;;;;11.61;100.00;101405.03;4975096;28;20042;-73